UAL523 MMMX-MMPR
Flight info
| Callsign | UAL523 |
|---|---|
| Flight time | 1h 1m |
| Altitude | 38000 |
| Route | SEBON3B SEBON UT124 GDL UJ14N NOTUP NOTUP1B |
| Aircraft | A346/H-SDE2E3FGHIJ3J4J5M1RWXY/LB1D1 |
Departure
| Time | 2026-04-24 02:36 |
|---|---|
| Airport | Mexico City Benito Juárez International Airport (MMMX) |
Arrival
| Time | 2026-04-24 03:38 |
|---|---|
| Airport | Puerto Vallarta International Airport (MMPR) |
| Time | Latitude | Longitude | Altitude | Speed | Heading |
|---|---|---|---|---|---|
| 2026-04-24 01:56 | 19.42199 | -99.08104 | 7353 ft | 0 kts | 52° |
| 2026-04-24 02:08 | 19.42198 | -99.08106 | 7353 ft | 1 kts | 52° |
| 2026-04-24 02:09 | 19.42181 | -99.08116 | 7353 ft | 4 kts | 356° |
| 2026-04-24 02:09 | 19.42144 | -99.08094 | 7353 ft | 3 kts | 322° |
| 2026-04-24 02:09 | 19.42141 | -99.08092 | 7353 ft | 1 kts | 327° |
| 2026-04-24 02:09 | 19.42135 | -99.08087 | 7353 ft | 0 kts | 327° |
| 2026-04-24 02:15 | 19.42139 | -99.08090 | 7353 ft | 1 kts | 319° |
| 2026-04-24 02:15 | 19.42142 | -99.08093 | 7353 ft | 0 kts | 319° |
| 2026-04-24 02:16 | 19.42143 | -99.08094 | 7353 ft | 0 kts | 319° |
| 2026-04-24 02:16 | 19.42149 | -99.08101 | 7353 ft | 0 kts | 311° |
| 2026-04-24 02:19 | 19.42150 | -99.08102 | 7353 ft | 1 kts | 311° |
| 2026-04-24 02:19 | 19.42152 | -99.08105 | 7353 ft | 0 kts | 311° |
| 2026-04-24 02:20 | 19.42153 | -99.08106 | 7353 ft | 1 kts | 311° |
| 2026-04-24 02:20 | 19.42163 | -99.08119 | 7353 ft | 2 kts | 306° |
| 2026-04-24 02:20 | 19.42168 | -99.08128 | 7353 ft | 2 kts | 305° |
| 2026-04-24 02:21 | 19.42177 | -99.08140 | 7353 ft | 0 kts | 304° |
| 2026-04-24 02:21 | 19.42182 | -99.08149 | 7353 ft | 2 kts | 304° |
| 2026-04-24 02:21 | 19.42207 | -99.08185 | 7353 ft | 8 kts | 318° |
| 2026-04-24 02:21 | 19.42280 | -99.08203 | 7353 ft | 13 kts | 358° |
| 2026-04-24 02:22 | 19.42378 | -99.08195 | 7353 ft | 15 kts | 23° |
| 2026-04-24 02:22 | 19.42450 | -99.08115 | 7355 ft | 15 kts | 56° |
| 2026-04-24 02:22 | 19.42511 | -99.08008 | 7353 ft | 17 kts | 59° |
| 2026-04-24 02:22 | 19.42574 | -99.07895 | 7352 ft | 17 kts | 59° |
| 2026-04-24 02:23 | 19.42612 | -99.07829 | 7352 ft | 9 kts | 53° |
| 2026-04-24 02:23 | 19.42665 | -99.07823 | 7352 ft | 9 kts | 325° |
| 2026-04-24 02:23 | 19.42723 | -99.07864 | 7353 ft | 10 kts | 330° |
| 2026-04-24 02:23 | 19.42797 | -99.07872 | 7353 ft | 11 kts | 15° |
| 2026-04-24 02:24 | 19.42874 | -99.07831 | 7353 ft | 13 kts | 28° |
| 2026-04-24 02:24 | 19.42954 | -99.07766 | 7354 ft | 15 kts | 46° |
| 2026-04-24 02:24 | 19.43017 | -99.07669 | 7355 ft | 17 kts | 58° |
| 2026-04-24 02:24 | 19.43043 | -99.07622 | 7355 ft | 19 kts | 58° |
| 2026-04-24 02:25 | 19.43097 | -99.07529 | 7354 ft | 20 kts | 59° |
| 2026-04-24 02:25 | 19.43174 | -99.07394 | 7350 ft | 23 kts | 59° |
| 2026-04-24 02:25 | 19.43251 | -99.07224 | 7348 ft | 26 kts | 82° |
| 2026-04-24 02:25 | 19.43307 | -99.07037 | 7348 ft | 27 kts | 57° |
| 2026-04-24 02:26 | 19.43404 | -99.06858 | 7347 ft | 28 kts | 68° |
| 2026-04-24 02:26 | 19.43524 | -99.06718 | 7348 ft | 21 kts | 33° |
| 2026-04-24 02:26 | 19.43621 | -99.06610 | 7347 ft | 19 kts | 58° |
| 2026-04-24 02:26 | 19.43693 | -99.06478 | 7344 ft | 21 kts | 60° |
| 2026-04-24 02:27 | 19.43772 | -99.06335 | 7342 ft | 24 kts | 60° |
| 2026-04-24 02:27 | 19.43864 | -99.06169 | 7340 ft | 27 kts | 59° |
| 2026-04-24 02:27 | 19.43962 | -99.05995 | 7341 ft | 27 kts | 59° |
| 2026-04-24 02:27 | 19.44013 | -99.05907 | 7342 ft | 3 kts | 58° |
| 2026-04-24 02:28 | 19.44028 | -99.05884 | 7342 ft | 4 kts | 52° |
| 2026-04-24 02:28 | 19.44050 | -99.05861 | 7343 ft | 5 kts | 39° |
| 2026-04-24 02:28 | 19.44084 | -99.05846 | 7343 ft | 3 kts | 13° |
| 2026-04-24 02:28 | 19.44090 | -99.05844 | 7343 ft | 0 kts | 11° |
| 2026-04-24 02:30 | 19.44094 | -99.05843 | 7343 ft | 1 kts | 11° |
| 2026-04-24 02:30 | 19.44104 | -99.05841 | 7343 ft | 0 kts | 11° |
| 2026-04-24 02:33 | 19.44112 | -99.05840 | 7343 ft | 3 kts | 9° |
| 2026-04-24 02:33 | 19.44204 | -99.05832 | 7343 ft | 22 kts | 3° |
| 2026-04-24 02:33 | 19.44370 | -99.05821 | 7346 ft | 21 kts | 4° |
| 2026-04-24 02:33 | 19.44433 | -99.05817 | 7346 ft | 0 kts | 3° |
| 2026-04-24 02:34 | 19.44434 | -99.05817 | 7346 ft | 0 kts | 4° |
| 2026-04-24 02:34 | 19.44454 | -99.05815 | 7346 ft | 5 kts | 3° |
| 2026-04-24 02:35 | 19.44508 | -99.05817 | 7346 ft | 9 kts | 353° |
| 2026-04-24 02:35 | 19.44553 | -99.05835 | 7346 ft | 2 kts | 286° |
| 2026-04-24 02:35 | 19.44541 | -99.05865 | 7346 ft | 7 kts | 245° |
| 2026-04-24 02:35 | 19.44420 | -99.06097 | 7344 ft | 70 kts | 239° |
| 2026-04-24 02:36 | 19.44055 | -99.06744 | 7353 ft | 131 kts | 240° |
| 2026-04-24 02:36 | 19.43482 | -99.07761 | 7365 ft | 181 kts | 241° |
| 2026-04-24 02:36 | 19.42859 | -99.08913 | 7954 ft | 176 kts | 242° |
| 2026-04-24 02:36 | 19.42262 | -99.10010 | 8591 ft | 172 kts | 242° |
| 2026-04-24 02:37 | 19.41651 | -99.11138 | 9032 ft | 180 kts | 243° |
| 2026-04-24 02:37 | 19.41036 | -99.12301 | 9422 ft | 188 kts | 242° |
| 2026-04-24 02:37 | 19.40325 | -99.13535 | 9711 ft | 203 kts | 239° |
| 2026-04-24 02:37 | 19.39544 | -99.14865 | 10022 ft | 218 kts | 239° |
| 2026-04-24 02:38 | 19.38732 | -99.16268 | 10358 ft | 233 kts | 240° |
| 2026-04-24 02:38 | 19.37847 | -99.17821 | 10645 ft | 254 kts | 240° |
| 2026-04-24 02:38 | 19.37151 | -99.19587 | 11069 ft | 266 kts | 265° |
| 2026-04-24 02:38 | 19.37322 | -99.21487 | 11854 ft | 262 kts | 292° |
| 2026-04-24 02:39 | 19.38292 | -99.23090 | 12640 ft | 260 kts | 319° |
| 2026-04-24 02:39 | 19.39681 | -99.24265 | 13400 ft | 260 kts | 323° |
| 2026-04-24 02:39 | 19.41129 | -99.25446 | 14173 ft | 262 kts | 323° |
| 2026-04-24 02:39 | 19.42559 | -99.26624 | 14917 ft | 265 kts | 323° |
| 2026-04-24 02:40 | 19.44013 | -99.27832 | 15631 ft | 269 kts | 323° |
| 2026-04-24 02:40 | 19.45504 | -99.29079 | 16340 ft | 273 kts | 322° |
| 2026-04-24 02:40 | 19.46877 | -99.30456 | 17012 ft | 279 kts | 305° |
| 2026-04-24 02:40 | 19.47635 | -99.32352 | 17680 ft | 286 kts | 281° |
| 2026-04-24 02:41 | 19.47586 | -99.34512 | 18173 ft | 303 kts | 257° |
| 2026-04-24 02:41 | 19.46848 | -99.36661 | 18529 ft | 321 kts | 250° |
| 2026-04-24 02:41 | 19.46005 | -99.38889 | 18950 ft | 335 kts | 251° |
| 2026-04-24 02:41 | 19.45137 | -99.41216 | 19589 ft | 340 kts | 251° |
| 2026-04-24 02:42 | 19.44280 | -99.43559 | 20296 ft | 343 kts | 251° |
| 2026-04-24 02:42 | 19.43427 | -99.45907 | 20995 ft | 345 kts | 252° |
| 2026-04-24 02:42 | 19.42559 | -99.48302 | 21679 ft | 348 kts | 252° |
| 2026-04-24 02:42 | 19.41757 | -99.50519 | 22284 ft | 350 kts | 252° |
| 2026-04-24 02:43 | 19.40892 | -99.52919 | 22946 ft | 353 kts | 252° |
| 2026-04-24 02:43 | 19.40010 | -99.55362 | 23589 ft | 357 kts | 252° |
| 2026-04-24 02:43 | 19.39130 | -99.57836 | 24260 ft | 359 kts | 255° |
| 2026-04-24 02:43 | 19.38459 | -99.60380 | 24938 ft | 359 kts | 261° |
| 2026-04-24 02:44 | 19.38066 | -99.62978 | 25447 ft | 365 kts | 268° |
| 2026-04-24 02:44 | 19.37867 | -99.65736 | 25720 ft | 379 kts | 269° |
| 2026-04-24 02:44 | 19.37708 | -99.68532 | 25980 ft | 393 kts | 269° |
| 2026-04-24 02:44 | 19.37542 | -99.71484 | 26238 ft | 408 kts | 269° |
| 2026-04-24 02:45 | 19.37364 | -99.74532 | 26483 ft | 422 kts | 269° |
| 2026-04-24 02:45 | 19.37172 | -99.77675 | 26724 ft | 435 kts | 269° |
| 2026-04-24 02:45 | 19.36970 | -99.80930 | 27100 ft | 445 kts | 269° |
| 2026-04-24 02:45 | 19.36764 | -99.84197 | 27665 ft | 449 kts | 269° |
| 2026-04-24 02:46 | 19.36553 | -99.87498 | 28290 ft | 452 kts | 269° |
| 2026-04-24 02:46 | 19.36341 | -99.90840 | 28902 ft | 455 kts | 269° |
| 2026-04-24 02:46 | 19.36130 | -99.94169 | 29506 ft | 458 kts | 269° |
| 2026-04-24 02:46 | 19.35917 | -99.97522 | 30073 ft | 461 kts | 269° |
| 2026-04-24 02:47 | 19.35701 | -100.00929 | 30836 ft | 460 kts | 269° |
| 2026-04-24 02:47 | 19.35529 | -100.04284 | 31690 ft | 455 kts | 271° |
| 2026-04-24 02:47 | 19.35537 | -100.07586 | 32495 ft | 451 kts | 274° |
| 2026-04-24 02:47 | 19.35729 | -100.10873 | 33260 ft | 448 kts | 277° |
| 2026-04-24 02:48 | 19.36106 | -100.14135 | 34006 ft | 445 kts | 281° |
| 2026-04-24 02:48 | 19.36661 | -100.17341 | 34718 ft | 443 kts | 284° |
| 2026-04-24 02:48 | 19.37391 | -100.20496 | 35427 ft | 440 kts | 288° |
| 2026-04-24 02:48 | 19.38285 | -100.23572 | 36110 ft | 437 kts | 291° |
| 2026-04-24 02:49 | 19.39277 | -100.26605 | 36728 ft | 436 kts | 291° |
| 2026-04-24 02:49 | 19.40280 | -100.29634 | 37215 ft | 437 kts | 291° |
| 2026-04-24 02:49 | 19.41288 | -100.32672 | 37578 ft | 440 kts | 291° |
| 2026-04-24 02:49 | 19.42310 | -100.35756 | 37899 ft | 443 kts | 291° |
| 2026-04-24 02:50 | 19.43335 | -100.38857 | 38237 ft | 445 kts | 291° |
| 2026-04-24 02:50 | 19.44356 | -100.41950 | 38346 ft | 448 kts | 291° |
| 2026-04-24 02:50 | 19.46411 | -100.48191 | 38310 ft | 448 kts | 291° |
| 2026-04-24 02:51 | 19.48462 | -100.54430 | 38312 ft | 455 kts | 291° |
| 2026-04-24 02:51 | 19.50575 | -100.60862 | 38324 ft | 468 kts | 291° |
| 2026-04-24 02:52 | 19.52717 | -100.67400 | 38322 ft | 470 kts | 291° |
| 2026-04-24 02:52 | 19.54863 | -100.73950 | 38338 ft | 471 kts | 291° |
| 2026-04-24 02:53 | 19.57073 | -100.80437 | 38333 ft | 472 kts | 291° |
| 2026-04-24 02:53 | 19.59309 | -100.86973 | 38335 ft | 471 kts | 291° |
| 2026-04-24 02:54 | 19.61540 | -100.93511 | 38293 ft | 471 kts | 291° |
| 2026-04-24 02:54 | 19.63755 | -101.00019 | 38268 ft | 472 kts | 291° |
| 2026-04-24 02:55 | 19.65970 | -101.06547 | 38280 ft | 470 kts | 291° |
| 2026-04-24 02:55 | 19.68188 | -101.13093 | 38289 ft | 470 kts | 291° |
| 2026-04-24 02:56 | 19.70387 | -101.19591 | 38317 ft | 469 kts | 291° |
| 2026-04-24 02:56 | 19.72592 | -101.26115 | 38344 ft | 470 kts | 291° |
| 2026-04-24 02:57 | 19.74802 | -101.32664 | 38374 ft | 470 kts | 291° |
| 2026-04-24 02:57 | 19.76996 | -101.39167 | 38423 ft | 469 kts | 291° |
| 2026-04-24 02:58 | 19.79191 | -101.45691 | 38431 ft | 469 kts | 291° |
| 2026-04-24 02:58 | 19.81367 | -101.52167 | 38452 ft | 468 kts | 291° |
| 2026-04-24 02:59 | 19.83551 | -101.58672 | 38417 ft | 467 kts | 291° |
| 2026-04-24 02:59 | 19.85702 | -101.65087 | 38382 ft | 467 kts | 290° |
| 2026-04-24 03:00 | 19.87895 | -101.71636 | 38354 ft | 466 kts | 290° |
| 2026-04-24 03:00 | 19.90080 | -101.78171 | 38339 ft | 466 kts | 290° |
| 2026-04-24 03:01 | 19.92251 | -101.84674 | 38337 ft | 466 kts | 290° |
| 2026-04-24 03:01 | 19.94415 | -101.91162 | 38340 ft | 466 kts | 290° |
| 2026-04-24 03:02 | 19.96564 | -101.97613 | 38350 ft | 465 kts | 290° |
| 2026-04-24 03:02 | 19.98724 | -102.04112 | 38345 ft | 465 kts | 290° |
| 2026-04-24 03:03 | 20.00889 | -102.10634 | 38342 ft | 470 kts | 290° |
| 2026-04-24 03:03 | 20.03063 | -102.17191 | 38335 ft | 470 kts | 290° |
| 2026-04-24 03:04 | 20.05237 | -102.23756 | 38327 ft | 470 kts | 290° |
| 2026-04-24 03:04 | 20.07391 | -102.30275 | 38323 ft | 469 kts | 290° |
| 2026-04-24 03:05 | 20.09550 | -102.36812 | 38325 ft | 469 kts | 290° |
| 2026-04-24 03:05 | 20.11710 | -102.43365 | 38327 ft | 469 kts | 290° |
| 2026-04-24 03:06 | 20.13868 | -102.49918 | 38327 ft | 469 kts | 290° |
| 2026-04-24 03:06 | 20.16015 | -102.56451 | 38326 ft | 468 kts | 290° |
| 2026-04-24 03:07 | 20.18164 | -102.62998 | 38317 ft | 468 kts | 290° |
| 2026-04-24 03:07 | 20.20598 | -102.69441 | 38303 ft | 468 kts | 295° |
| 2026-04-24 03:08 | 20.25159 | -102.78648 | 38295 ft | 468 kts | 299° |
| 2026-04-24 03:09 | 20.28323 | -102.84725 | 38292 ft | 468 kts | 299° |
| 2026-04-24 03:09 | 20.31479 | -102.90796 | 38290 ft | 468 kts | 298° |
| 2026-04-24 03:10 | 20.34630 | -102.96867 | 38294 ft | 467 kts | 298° |
| 2026-04-24 03:10 | 20.37769 | -103.02923 | 38287 ft | 467 kts | 298° |
| 2026-04-24 03:11 | 20.40868 | -103.08908 | 37928 ft | 454 kts | 298° |
| 2026-04-24 03:11 | 20.42365 | -103.11803 | 37261 ft | 451 kts | 298° |
| 2026-04-24 03:11 | 20.43872 | -103.14720 | 36450 ft | 451 kts | 298° |
| 2026-04-24 03:11 | 20.45393 | -103.17665 | 35619 ft | 452 kts | 299° |
| 2026-04-24 03:12 | 20.46908 | -103.20599 | 34763 ft | 452 kts | 298° |
| 2026-04-24 03:12 | 20.48420 | -103.23531 | 33899 ft | 453 kts | 299° |
| 2026-04-24 03:12 | 20.49944 | -103.26485 | 33175 ft | 451 kts | 299° |
| 2026-04-24 03:12 | 20.51415 | -103.29452 | 32564 ft | 448 kts | 296° |
| 2026-04-24 03:13 | 20.52719 | -103.32430 | 31945 ft | 447 kts | 294° |
| 2026-04-24 03:13 | 20.53901 | -103.35527 | 31264 ft | 447 kts | 291° |
| 2026-04-24 03:13 | 20.55002 | -103.38605 | 30550 ft | 448 kts | 291° |
| 2026-04-24 03:13 | 20.56111 | -103.41734 | 29838 ft | 449 kts | 291° |
| 2026-04-24 03:14 | 20.57208 | -103.44836 | 29142 ft | 449 kts | 291° |
| 2026-04-24 03:14 | 20.58304 | -103.47936 | 28706 ft | 443 kts | 291° |
| 2026-04-24 03:14 | 20.59387 | -103.51006 | 28263 ft | 438 kts | 291° |
| 2026-04-24 03:14 | 20.60447 | -103.54009 | 27728 ft | 435 kts | 291° |
| 2026-04-24 03:15 | 20.61514 | -103.57032 | 27240 ft | 432 kts | 291° |
| 2026-04-24 03:15 | 20.62561 | -103.59999 | 26784 ft | 427 kts | 291° |
| 2026-04-24 03:15 | 20.63607 | -103.62969 | 26327 ft | 423 kts | 291° |
| 2026-04-24 03:15 | 20.64640 | -103.65901 | 25867 ft | 420 kts | 291° |
| 2026-04-24 03:16 | 20.65658 | -103.68795 | 25435 ft | 416 kts | 291° |
| 2026-04-24 03:16 | 20.66666 | -103.71655 | 24993 ft | 413 kts | 291° |
| 2026-04-24 03:16 | 20.67663 | -103.74492 | 24540 ft | 410 kts | 291° |
| 2026-04-24 03:16 | 20.68671 | -103.77360 | 24064 ft | 408 kts | 291° |
| 2026-04-24 03:17 | 20.69663 | -103.80180 | 23588 ft | 406 kts | 291° |
| 2026-04-24 03:17 | 20.70652 | -103.82996 | 23131 ft | 403 kts | 291° |
| 2026-04-24 03:17 | 20.71637 | -103.85799 | 22673 ft | 401 kts | 291° |
| 2026-04-24 03:17 | 20.72618 | -103.88589 | 22223 ft | 399 kts | 291° |
| 2026-04-24 03:18 | 20.73591 | -103.91362 | 21757 ft | 397 kts | 291° |
| 2026-04-24 03:18 | 20.74550 | -103.94095 | 21312 ft | 395 kts | 291° |
| 2026-04-24 03:18 | 20.75514 | -103.96849 | 20875 ft | 393 kts | 291° |
| 2026-04-24 03:18 | 20.76474 | -103.99590 | 20423 ft | 391 kts | 291° |
| 2026-04-24 03:19 | 20.77420 | -104.02294 | 19982 ft | 389 kts | 291° |
| 2026-04-24 03:19 | 20.78367 | -104.05002 | 19551 ft | 387 kts | 291° |
| 2026-04-24 03:19 | 20.79304 | -104.07683 | 19127 ft | 385 kts | 291° |
| 2026-04-24 03:19 | 20.80237 | -104.10355 | 18711 ft | 383 kts | 291° |
| 2026-04-24 03:20 | 20.81166 | -104.13017 | 18345 ft | 378 kts | 291° |
| 2026-04-24 03:20 | 20.82066 | -104.15597 | 18244 ft | 365 kts | 291° |
| 2026-04-24 03:20 | 20.82941 | -104.18111 | 18242 ft | 349 kts | 291° |
| 2026-04-24 03:20 | 20.83768 | -104.20483 | 18244 ft | 333 kts | 291° |
| 2026-04-24 03:21 | 20.84550 | -104.22739 | 18246 ft | 319 kts | 290° |
| 2026-04-24 03:21 | 20.85031 | -104.24979 | 18240 ft | 306 kts | 277° |
| 2026-04-24 03:21 | 20.85039 | -104.27208 | 18041 ft | 302 kts | 265° |
| 2026-04-24 03:21 | 20.84716 | -104.29449 | 17683 ft | 301 kts | 262° |
| 2026-04-24 03:22 | 20.84349 | -104.31619 | 17350 ft | 300 kts | 262° |
| 2026-04-24 03:22 | 20.83978 | -104.33800 | 17051 ft | 298 kts | 262° |
| 2026-04-24 03:22 | 20.83614 | -104.35993 | 16748 ft | 296 kts | 262° |
| 2026-04-24 03:22 | 20.83378 | -104.37432 | 16549 ft | 294 kts | 262° |
| 2026-04-24 03:23 | 20.82913 | -104.40288 | 16164 ft | 290 kts | 262° |
| 2026-04-24 03:23 | 20.82573 | -104.42389 | 15881 ft | 287 kts | 262° |
| 2026-04-24 03:23 | 20.82317 | -104.44501 | 15598 ft | 284 kts | 268° |
| 2026-04-24 03:23 | 20.82312 | -104.46578 | 15314 ft | 281 kts | 275° |
| 2026-04-24 03:24 | 20.82507 | -104.48651 | 15042 ft | 277 kts | 278° |
| 2026-04-24 03:24 | 20.82734 | -104.50689 | 14772 ft | 274 kts | 278° |
| 2026-04-24 03:24 | 20.82960 | -104.52692 | 14503 ft | 271 kts | 278° |
| 2026-04-24 03:24 | 20.83184 | -104.54695 | 14230 ft | 269 kts | 278° |
| 2026-04-24 03:25 | 20.83393 | -104.56595 | 13973 ft | 266 kts | 278° |
| 2026-04-24 03:25 | 20.83608 | -104.58562 | 13703 ft | 264 kts | 278° |
| 2026-04-24 03:25 | 20.83819 | -104.60499 | 13432 ft | 261 kts | 278° |
| 2026-04-24 03:25 | 20.84026 | -104.62405 | 13150 ft | 259 kts | 277° |
| 2026-04-24 03:26 | 20.84237 | -104.64346 | 12759 ft | 262 kts | 277° |
| 2026-04-24 03:26 | 20.84446 | -104.66269 | 12376 ft | 264 kts | 277° |
| 2026-04-24 03:26 | 20.84658 | -104.68218 | 11982 ft | 267 kts | 277° |
| 2026-04-24 03:26 | 20.84872 | -104.70204 | 11581 ft | 269 kts | 277° |
| 2026-04-24 03:27 | 20.85087 | -104.72194 | 11137 ft | 267 kts | 277° |
| 2026-04-24 03:27 | 20.85298 | -104.74151 | 10768 ft | 260 kts | 277° |
| 2026-04-24 03:27 | 20.85501 | -104.76043 | 10413 ft | 255 kts | 277° |
| 2026-04-24 03:27 | 20.85703 | -104.77919 | 10068 ft | 255 kts | 277° |
| 2026-04-24 03:28 | 20.85907 | -104.79808 | 9608 ft | 252 kts | 277° |
| 2026-04-24 03:28 | 20.86101 | -104.81623 | 9300 ft | 244 kts | 277° |
| 2026-04-24 03:28 | 20.86295 | -104.83433 | 8925 ft | 247 kts | 277° |
| 2026-04-24 03:28 | 20.86493 | -104.85279 | 8491 ft | 249 kts | 277° |
| 2026-04-24 03:29 | 20.86688 | -104.87099 | 8055 ft | 249 kts | 278° |
| 2026-04-24 03:29 | 20.86881 | -104.88915 | 7641 ft | 243 kts | 278° |
| 2026-04-24 03:29 | 20.87069 | -104.90678 | 7264 ft | 236 kts | 278° |
| 2026-04-24 03:29 | 20.87251 | -104.92388 | 6897 ft | 229 kts | 278° |
| 2026-04-24 03:30 | 20.87429 | -104.94057 | 6547 ft | 220 kts | 278° |
| 2026-04-24 03:30 | 20.87599 | -104.95647 | 6181 ft | 213 kts | 278° |
| 2026-04-24 03:30 | 20.87765 | -104.97192 | 5882 ft | 203 kts | 278° |
| 2026-04-24 03:30 | 20.87921 | -104.98653 | 5634 ft | 193 kts | 278° |
| 2026-04-24 03:31 | 20.88068 | -105.00047 | 5403 ft | 184 kts | 278° |
| 2026-04-24 03:31 | 20.88173 | -105.01399 | 5197 ft | 185 kts | 268° |
| 2026-04-24 03:31 | 20.87792 | -105.02695 | 4908 ft | 185 kts | 240° |
| 2026-04-24 03:31 | 20.86981 | -105.03753 | 4637 ft | 181 kts | 229° |
| 2026-04-24 03:32 | 20.86124 | -105.04713 | 4387 ft | 175 kts | 228° |
| 2026-04-24 03:32 | 20.85282 | -105.05647 | 4154 ft | 171 kts | 228° |
| 2026-04-24 03:32 | 20.84463 | -105.06566 | 3944 ft | 170 kts | 228° |
| 2026-04-24 03:32 | 20.83652 | -105.07484 | 3750 ft | 170 kts | 229° |
| 2026-04-24 03:33 | 20.82835 | -105.08415 | 3550 ft | 170 kts | 229° |
| 2026-04-24 03:33 | 20.82026 | -105.09342 | 3352 ft | 169 kts | 228° |
| 2026-04-24 03:33 | 20.81222 | -105.10265 | 3156 ft | 169 kts | 228° |
| 2026-04-24 03:33 | 20.80431 | -105.11172 | 2962 ft | 168 kts | 228° |
| 2026-04-24 03:34 | 20.79625 | -105.12095 | 2840 ft | 168 kts | 228° |
| 2026-04-24 03:34 | 20.78825 | -105.13013 | 2756 ft | 168 kts | 228° |
| 2026-04-24 03:34 | 20.78041 | -105.13914 | 2646 ft | 162 kts | 228° |
| 2026-04-24 03:34 | 20.77285 | -105.14781 | 2516 ft | 160 kts | 228° |
| 2026-04-24 03:35 | 20.76529 | -105.15649 | 2288 ft | 159 kts | 228° |
| 2026-04-24 03:35 | 20.75772 | -105.16517 | 2061 ft | 159 kts | 228° |
| 2026-04-24 03:35 | 20.75028 | -105.17372 | 1842 ft | 158 kts | 227° |
| 2026-04-24 03:35 | 20.74274 | -105.18237 | 1621 ft | 158 kts | 228° |
| 2026-04-24 03:36 | 20.73529 | -105.19093 | 1405 ft | 157 kts | 228° |
| 2026-04-24 03:36 | 20.72792 | -105.19938 | 1188 ft | 155 kts | 228° |
| 2026-04-24 03:36 | 20.72051 | -105.20787 | 971 ft | 153 kts | 228° |
| 2026-04-24 03:36 | 20.71338 | -105.21606 | 764 ft | 151 kts | 228° |
| 2026-04-24 03:37 | 20.70618 | -105.22433 | 549 ft | 150 kts | 228° |
| 2026-04-24 03:37 | 20.69907 | -105.23251 | 334 ft | 148 kts | 228° |
| 2026-04-24 03:37 | 20.69212 | -105.24044 | 138 ft | 147 kts | 227° |
| 2026-04-24 03:37 | 20.68522 | -105.24827 | 49 ft | 129 kts | 229° |
| 2026-04-24 03:38 | 20.68107 | -105.25303 | 44 ft | 31 kts | 228° |
| 2026-04-24 03:38 | 20.68024 | -105.25325 | 43 ft | 9 kts | 150° |
| 2026-04-24 03:38 | 20.67987 | -105.25293 | 43 ft | 4 kts | 139° |
| 2026-04-24 03:38 | 20.67975 | -105.25281 | 43 ft | 0 kts | 139° |
| 2026-04-24 03:39 | 20.67954 | -105.25252 | 44 ft | 3 kts | 99° |
| 2026-04-24 03:39 | 20.67969 | -105.25213 | 44 ft | 10 kts | 57° |
| 2026-04-24 03:39 | 20.68051 | -105.25114 | 46 ft | 23 kts | 47° |
| 2026-04-24 03:39 | 20.68062 | -105.25015 | 47 ft | 13 kts | 128° |
| 2026-04-24 03:40 | 20.67993 | -105.24937 | 47 ft | 12 kts | 124° |
| 2026-04-24 03:40 | 20.67974 | -105.24862 | 49 ft | 9 kts | 116° |
| 2026-04-24 03:40 | 20.67950 | -105.24799 | 50 ft | 8 kts | 94° |
| 2026-04-24 03:40 | 20.67956 | -105.24759 | 50 ft | 4 kts | 53° |
| 2026-04-24 03:41 | 20.67970 | -105.24744 | 50 ft | 0 kts | 46° |